Curtin, Western Australia

11:06 AM AWST on August 29, 2015 (GMT +0800)
Curtin | | Change Station
CLOSE
Current Station
Airport
Location: Curtin,
Elevation: 299 ft
Nearby Weather Stations

Elev 299 ft 17.58 °S, 123.83 °E | Updated 6 minutes ago

Clear
Clear
86 °F
Feels Like 84 °F
N
7
Wind Variable Wind from WSW

Today
High -- | Low -- °F
--% Chance of Precip.
Yesterday
High -- | Low -- °F
Precip. -- in
5:54 AM 5:37 PM
Waxing Gibbous, 99% visible
Pressure 29.98 in
Visibility -9999.0 miles
Clouds
Heat Index 84 °F
Dew Point 55 °F
Humidity 35%
Rainfall 0.00 in
Snow Depth Not available.
UV Not available.
Pollen Not available.
Air Quality Not available.
Flu Activity Not available.
METAR YCIN 290300Z AUTO 24006KT 200V300 //// // NCD 30/13 Q1015
Pressure 29.98 in
Visibility -9999.0 miles
Clouds
Heat Index 84 °F
Dew Point 55 °F
Humidity 35%
Rainfall 0.00 in
Snow Depth Not available.
UV Not available.
Pollen Not available.
Air Quality Not available.
Flu Activity Not available.
METAR YCIN 290300Z AUTO 24006KT 200V300 //// // NCD 30/13 Q1015

10-Day Weather Forecast

×

Almanac

Astronomy

Aug. 29, 2015 Rise Set
Actual Time
Civil Twilight
Nautical Twilight
Astronomical Twilight
Moon
Length of Visible Light
Length of Day
Tomorrow will be .
, % of the Moon is Illuminated

Today's Extremes

Country Highs Country Lows

Community

WunderPhotos

Upload Photos

1,850,593 photos uploaded!

WunderBlogs® & News

Nearby

Air Quality

  Air Quality AQ Index Pollutant
Not available.

Snow Depth

Station Depth Elevation

Earthquake Activity

City Distance Mag. Time & Date
Minimum magnitude displayed is 2.5.

Coastal Water Temperatures

Place Temperature

Stations

Nearby Weather Stations

Station Location Temp. Windchill Dew Point Humidity Wind Precip. Elev Updated Type